createdAt,value
2022-12-12T00:01:22.548Z,6.18
2022-12-12T00:03:50.391Z,6.70
2022-12-12T00:06:19.051Z,6.80
2022-12-12T00:08:48.655Z,6.40
2022-12-12T00:11:16.312Z,6.47
2022-12-12T00:13:43.553Z,6.68
2022-12-12T00:16:11.641Z,6.40
2022-12-12T00:18:39.739Z,7.20
2022-12-12T00:21:11.754Z,6.50
2022-12-12T00:23:38.780Z,7.00
2022-12-12T00:26:11.936Z,7.20
2022-12-12T00:28:38.901Z,7.15
2022-12-12T00:31:06.227Z,5.55
2022-12-12T00:33:33.302Z,6.85
2022-12-12T00:36:00.776Z,6.45
2022-12-12T00:38:27.815Z,6.55
2022-12-12T00:40:57.653Z,7.07
2022-12-12T00:43:25.938Z,6.05
2022-12-12T00:45:54.000Z,6.90
2022-12-12T00:48:23.621Z,6.20
2022-12-12T00:50:51.129Z,6.30
2022-12-12T00:53:18.231Z,7.15
2022-12-12T00:55:49.222Z,7.30
2022-12-12T00:58:16.181Z,7.05
2022-12-12T01:00:43.950Z,6.07
2022-12-12T01:03:13.315Z,6.90
2022-12-12T01:05:40.744Z,6.13
2022-12-12T01:08:07.835Z,6.88
2022-12-12T01:10:37.389Z,7.25
2022-12-12T01:13:04.433Z,6.47
2022-12-12T01:15:32.149Z,6.97
2022-12-12T01:17:59.158Z,6.25
2022-12-12T01:20:27.798Z,6.53
2022-12-12T01:22:57.563Z,6.93
2022-12-12T01:25:24.917Z,6.55
2022-12-12T01:27:54.247Z,6.22
2022-12-12T01:30:23.886Z,6.47
2022-12-12T01:32:55.314Z,6.22
2022-12-12T01:35:23.592Z,6.13
2022-12-12T01:37:50.987Z,7.07
2022-12-12T01:40:22.300Z,6.70
2022-12-12T01:42:50.128Z,6.68
2022-12-12T01:45:55.099Z,6.47
2022-12-12T01:48:26.714Z,6.43
2022-12-12T01:50:55.475Z,6.13
2022-12-12T01:53:25.801Z,6.70
2022-12-12T01:55:56.738Z,6.40
2022-12-12T01:58:24.775Z,7.03
2022-12-12T02:00:52.223Z,6.93
2022-12-12T02:03:19.307Z,8.02
2022-12-12T02:05:55.109Z,9.32
2022-12-12T02:08:23.740Z,10.13
2022-12-12T02:10:51.778Z,9.10
2022-12-12T02:13:22.694Z,9.43
2022-12-12T02:16:10.048Z,11.68
2022-12-12T02:18:55.243Z,9.05
2022-12-12T02:21:40.708Z,10.10
2022-12-12T02:24:30.825Z,9.95
2022-12-12T02:27:24.564Z,9.85
2022-12-12T02:30:06.092Z,9.90
2022-12-12T02:32:40.109Z,9.68
2022-12-12T02:35:25.332Z,10.35
2022-12-12T02:38:01.815Z,10.05
2022-12-12T02:40:44.384Z,9.38
2022-12-12T02:43:36.558Z,9.82
2022-12-12T02:46:31.360Z,10.25
2022-12-12T02:49:04.773Z,10.18
2022-12-12T02:51:34.760Z,9.85
2022-12-12T02:54:05.460Z,10.75
2022-12-12T02:56:50.886Z,10.52
2022-12-12T02:59:26.020Z,11.38
2022-12-12T03:02:26.999Z,10.57
2022-12-12T03:05:35.121Z,10.32
2022-12-12T03:08:14.293Z,10.43
2022-12-12T03:11:05.006Z,10.05
2022-12-12T03:13:53.194Z,10.55
2022-12-12T03:16:39.061Z,10.38
2022-12-12T03:19:15.670Z,10.10
2022-12-12T03:21:59.703Z,10.10
2022-12-12T03:24:34.644Z,9.90
2022-12-12T03:27:14.089Z,10.50
2022-12-12T03:29:46.626Z,9.93
2022-12-12T03:32:28.337Z,10.02
2022-12-12T03:35:03.476Z,10.07
2022-12-12T03:37:48.210Z,10.57
2022-12-12T03:40:33.582Z,10.02
2022-12-12T03:43:07.022Z,8.02
2022-12-12T03:45:59.582Z,9.77
2022-12-12T03:48:34.546Z,10.23
2022-12-12T03:51:03.616Z,9.95
2022-12-12T03:53:34.188Z,9.25
2022-12-12T03:56:13.050Z,10.13
2022-12-12T03:58:51.007Z,9.43
2022-12-12T04:01:22.274Z,10.10
2022-12-12T04:04:18.934Z,8.82
2022-12-12T04:06:54.182Z,9.05
2022-12-12T04:09:40.444Z,9.63
2022-12-12T04:12:42.433Z,8.65
2022-12-12T04:15:16.219Z,9.32
2022-12-12T04:18:00.340Z,8.80
2022-12-12T04:20:56.605Z,9.23
2022-12-12T04:23:34.255Z,8.75
2022-12-12T04:26:20.496Z,8.77
2022-12-12T04:29:01.658Z,9.40
2022-12-12T04:31:31.405Z,8.50
2022-12-12T04:34:04.098Z,8.50
2022-12-12T04:36:35.722Z,8.77
2022-12-12T04:39:05.713Z,9.25
2022-12-12T04:41:37.296Z,7.43
2022-12-12T04:44:07.073Z,7.93
2022-12-12T04:46:34.515Z,7.35
2022-12-12T04:49:13.090Z,8.15
2022-12-12T04:51:45.271Z,7.97
2022-12-12T04:54:25.802Z,7.00
2022-12-12T04:56:57.993Z,7.32
2022-12-12T04:59:25.424Z,8.38
2022-12-12T05:02:00.205Z,7.55
2022-12-12T05:04:30.321Z,7.53
2022-12-12T05:07:06.453Z,7.65
2022-12-12T05:12:01.023Z,7.50
2022-12-12T05:14:31.083Z,7.40
2022-12-12T05:17:06.602Z,7.30
2022-12-12T05:19:33.640Z,7.55
2022-12-12T05:22:00.900Z,6.78
2022-12-12T05:24:31.418Z,8.88
2022-12-12T05:27:00.978Z,7.97
2022-12-12T05:29:27.991Z,7.40
2022-12-12T05:31:57.916Z,8.25
2022-12-12T05:34:25.032Z,8.02
2022-12-12T05:36:52.310Z,7.68
2022-12-12T05:39:19.360Z,7.88
2022-12-12T05:41:46.761Z,7.88
2022-12-12T05:44:13.970Z,7.57
2022-12-12T05:46:41.445Z,7.03
2022-12-12T05:49:09.124Z,6.78
2022-12-12T05:51:37.554Z,6.93
2022-12-12T05:54:04.688Z,6.43
2022-12-12T05:56:32.055Z,7.15
2022-12-12T05:58:59.123Z,6.43
2022-12-12T06:01:26.501Z,6.78
2022-12-12T06:03:53.765Z,5.65
2022-12-12T06:06:21.116Z,6.43
2022-12-12T06:08:48.501Z,6.10
2022-12-12T06:11:15.871Z,5.43
2022-12-12T06:13:43.370Z,5.82
2022-12-12T06:16:16.983Z,5.95
2022-12-12T06:18:45.262Z,6.20
2022-12-12T06:21:13.475Z,5.65
2022-12-12T06:23:42.323Z,5.57
2022-12-12T06:26:14.493Z,6.20
2022-12-12T06:28:41.893Z,5.55
2022-12-12T06:31:12.061Z,6.25
2022-12-12T06:33:41.479Z,5.53
2022-12-12T06:36:22.779Z,6.15
2022-12-12T06:38:58.686Z,5.72
2022-12-12T06:41:29.009Z,6.38
2022-12-12T06:43:56.722Z,6.05
2022-12-12T06:46:26.636Z,6.22
2022-12-12T06:48:54.979Z,5.78
2022-12-12T06:51:25.289Z,6.15
2022-12-12T06:53:52.793Z,5.65
2022-12-12T06:56:22.628Z,5.63
2022-12-12T06:58:49.964Z,6.25
2022-12-12T07:01:20.543Z,6.30
2022-12-12T07:03:49.624Z,5.20
2022-12-12T07:06:18.429Z,4.88
2022-12-12T07:08:45.443Z,5.32
2022-12-12T07:11:16.328Z,4.95
2022-12-12T07:13:43.716Z,4.30
2022-12-12T07:16:14.069Z,4.80
2022-12-12T07:18:41.845Z,5.18
2022-12-12T07:21:12.608Z,4.28
2022-12-12T07:23:39.811Z,4.40
2022-12-12T07:26:09.902Z,4.07
2022-12-12T07:28:38.300Z,5.47
2022-12-12T07:31:11.346Z,4.53
2022-12-12T07:33:43.476Z,4.40
2022-12-12T07:36:17.087Z,4.15
2022-12-12T07:38:44.523Z,5.07
2022-12-12T07:41:15.650Z,5.03
2022-12-12T07:43:45.187Z,5.15
2022-12-12T07:46:18.607Z,5.28
2022-12-12T07:48:46.120Z,5.10
2022-12-12T07:51:14.629Z,5.15
2022-12-12T07:53:42.043Z,5.00
2022-12-12T07:56:11.609Z,5.28
2022-12-12T07:58:39.553Z,5.15
2022-12-12T08:01:26.288Z,5.03
2022-12-12T08:03:55.973Z,4.32
2022-12-12T08:06:23.840Z,4.45
2022-12-12T08:08:52.455Z,4.78
2022-12-12T08:11:23.270Z,5.07
2022-12-12T08:13:50.984Z,4.60
2022-12-12T08:16:21.805Z,5.03
2022-12-12T08:18:49.860Z,4.70
2022-12-12T08:21:24.791Z,4.85
2022-12-12T08:23:56.806Z,4.88
2022-12-12T08:26:25.999Z,4.55
2022-12-12T08:28:53.784Z,4.47
2022-12-12T08:31:21.786Z,4.68
2022-12-12T08:33:53.310Z,4.57
2022-12-12T08:36:32.351Z,4.63
2022-12-12T08:39:13.980Z,4.80
2022-12-12T08:41:49.969Z,4.82
2022-12-12T08:44:19.484Z,5.25
2022-12-12T08:46:48.059Z,5.18
2022-12-12T08:49:19.374Z,5.43
2022-12-12T08:51:50.601Z,5.28
2022-12-12T08:54:18.471Z,4.90
2022-12-12T08:56:45.783Z,4.80
2022-12-12T08:59:13.430Z,4.63
2022-12-12T09:01:41.182Z,4.88
2022-12-12T09:04:08.250Z,4.28
2022-12-12T09:06:35.704Z,4.85
2022-12-12T09:09:02.873Z,5.03
2022-12-12T09:11:30.168Z,4.63
2022-12-12T09:13:57.108Z,5.00
2022-12-12T09:16:26.603Z,4.90
2022-12-12T09:18:54.322Z,4.65
2022-12-12T09:21:22.037Z,5.00
2022-12-12T09:23:49.523Z,5.00
2022-12-12T09:26:18.086Z,4.75
2022-12-12T09:28:45.151Z,5.15
2022-12-12T09:31:16.326Z,4.97
2022-12-12T09:33:43.770Z,5.38
2022-12-12T09:36:12.509Z,4.60
2022-12-12T09:38:39.814Z,4.30
2022-12-12T09:41:10.111Z,4.75
2022-12-12T09:44:18.765Z,5.05
2022-12-12T09:47:00.533Z,4.50
2022-12-12T09:49:35.071Z,4.15
2022-12-12T09:52:06.314Z,5.25
2022-12-12T09:54:33.441Z,4.78
2022-12-12T09:57:06.804Z,4.57
2022-12-12T10:00:02.044Z,4.97
2022-12-12T10:02:40.648Z,4.60
2022-12-12T10:05:13.817Z,6.07
2022-12-12T10:07:55.637Z,6.10
2022-12-12T10:10:31.833Z,6.30
2022-12-12T10:13:02.140Z,6.47
2022-12-12T10:15:54.542Z,6.95
2022-12-12T10:18:35.655Z,6.65
2022-12-12T10:21:07.095Z,6.55
2022-12-12T10:23:40.068Z,6.45
2022-12-12T10:26:16.103Z,6.90
2022-12-12T10:28:44.515Z,6.18
2022-12-12T10:31:27.165Z,7.35
2022-12-12T10:34:01.779Z,5.65
2022-12-12T10:37:17.001Z,4.90
2022-12-12T10:39:50.228Z,4.55
2022-12-12T10:42:22.740Z,4.32
2022-12-12T10:45:17.934Z,4.60
2022-12-12T10:47:45.561Z,3.85
2022-12-12T10:50:33.780Z,3.30
2022-12-12T10:53:05.176Z,4.45
2022-12-12T10:55:53.618Z,3.60
2022-12-12T10:58:35.735Z,3.60
2022-12-12T11:01:10.285Z,3.40
2022-12-12T11:03:46.824Z,3.65
2022-12-12T11:06:38.435Z,3.75
2022-12-12T11:09:26.163Z,3.17
2022-12-12T11:12:01.177Z,3.15
2022-12-12T11:14:39.876Z,3.88
2022-12-12T11:17:24.672Z,3.40
2022-12-12T11:19:54.113Z,3.30
2022-12-12T11:22:22.117Z,3.65
2022-12-12T11:24:50.369Z,3.42
2022-12-12T11:27:50.391Z,4.05
2022-12-12T11:30:32.808Z,4.95
2022-12-12T11:33:01.401Z,3.83
2022-12-12T11:35:36.274Z,3.95
2022-12-12T11:38:28.233Z,3.58
2022-12-12T11:41:04.796Z,2.80
2022-12-12T11:43:36.997Z,3.45
2022-12-12T11:46:16.269Z,3.60
2022-12-12T11:48:47.441Z,2.97
2022-12-12T11:51:31.613Z,3.10
2022-12-12T11:53:59.964Z,3.28
2022-12-12T11:56:53.249Z,3.30
2022-12-12T11:59:57.722Z,3.78
2022-12-12T12:02:46.844Z,3.50
2022-12-12T12:05:26.700Z,3.50
2022-12-12T12:08:12.764Z,3.63
2022-12-12T12:10:50.611Z,3.50
2022-12-12T12:14:14.868Z,3.83
2022-12-12T12:16:48.245Z,3.20
2022-12-12T12:19:33.388Z,3.53
2022-12-12T12:22:28.630Z,4.07
2022-12-12T12:25:29.456Z,6.10
2022-12-12T12:28:10.939Z,6.95
2022-12-12T12:30:59.858Z,7.70
2022-12-12T12:33:40.763Z,7.03
2022-12-12T12:36:22.996Z,6.55
2022-12-12T12:39:03.356Z,7.25
2022-12-12T12:41:45.664Z,7.75
2022-12-12T12:44:34.776Z,7.40
2022-12-12T12:47:19.636Z,8.77
2022-12-12T12:49:54.359Z,7.85
2022-12-12T12:52:32.564Z,8.27
2022-12-12T12:55:03.205Z,8.15
2022-12-12T12:57:33.059Z,8.75
2022-12-12T13:00:06.111Z,8.60
2022-12-12T13:03:01.401Z,8.30
2022-12-12T13:05:29.059Z,8.63
2022-12-12T13:08:14.560Z,9.18
2022-12-12T13:10:47.849Z,8.90
2022-12-12T13:13:30.907Z,9.25
2022-12-12T13:16:27.189Z,8.25
2022-12-12T13:19:28.145Z,9.85
2022-12-12T13:22:04.600Z,8.93
2022-12-12T13:24:59.864Z,8.02
2022-12-12T13:27:52.870Z,8.00
2022-12-12T13:30:24.338Z,8.80
2022-12-12T13:33:43.033Z,8.73
2022-12-12T13:36:29.653Z,8.00
2022-12-12T13:39:01.256Z,9.32
2022-12-12T13:41:57.098Z,9.15
2022-12-12T13:44:48.942Z,8.73
2022-12-12T13:47:23.274Z,8.57
2022-12-12T13:50:06.964Z,9.05
2022-12-12T13:52:43.429Z,9.35
2022-12-12T13:55:13.987Z,9.55
2022-12-12T13:57:59.840Z,9.70
2022-12-12T14:00:38.340Z,8.73
2022-12-12T14:03:11.575Z,9.43
2022-12-12T14:05:43.583Z,9.20
2022-12-12T14:08:10.646Z,9.43
2022-12-12T14:10:40.897Z,9.30
2022-12-12T14:13:17.139Z,9.00
2022-12-12T14:15:46.888Z,9.07
2022-12-12T14:18:28.484Z,9.82
2022-12-12T14:21:04.923Z,9.18
2022-12-12T14:23:35.180Z,9.18
2022-12-12T14:26:28.239Z,9.55
2022-12-12T14:29:19.384Z,8.77
2022-12-12T14:32:11.995Z,8.52
2022-12-12T14:35:05.731Z,8.55
2022-12-12T14:38:02.421Z,9.15
2022-12-12T14:40:38.000Z,7.97
2022-12-12T14:43:21.994Z,8.98
2022-12-12T14:45:50.295Z,9.82
2022-12-12T14:48:28.928Z,9.30
2022-12-12T14:51:05.056Z,9.23
2022-12-12T14:53:38.616Z,9.15
2022-12-12T14:56:11.448Z,9.48
2022-12-12T14:58:42.318Z,9.57
2022-12-12T15:01:09.953Z,10.73
2022-12-12T15:04:05.792Z,9.35
2022-12-12T15:06:43.104Z,10.57
2022-12-12T15:09:24.637Z,9.40
2022-12-12T15:11:54.392Z,10.93
2022-12-12T15:14:27.869Z,9.35
2022-12-12T15:17:21.419Z,11.40
2022-12-12T15:19:52.255Z,11.10
2022-12-12T15:22:25.751Z,11.80
2022-12-12T15:24:56.619Z,12.68
2022-12-12T15:27:41.600Z,12.70
2022-12-12T15:30:19.763Z,14.02
2022-12-12T15:32:48.529Z,12.82
2022-12-12T15:35:18.986Z,13.38
2022-12-12T15:38:07.952Z,13.10
2022-12-12T15:40:39.813Z,12.45
2022-12-12T15:43:16.423Z,13.52
2022-12-12T15:45:50.221Z,12.70
2022-12-12T15:48:19.008Z,13.70
2022-12-12T15:50:46.393Z,12.85
2022-12-12T15:53:31.848Z,13.95
2022-12-12T15:56:09.543Z,10.88
2022-12-12T15:58:42.845Z,12.48
2022-12-12T16:01:21.356Z,12.00
2022-12-12T16:03:53.082Z,12.68
2022-12-12T16:06:24.123Z,12.43
2022-12-12T16:09:16.222Z,13.30
2022-12-12T16:11:56.942Z,12.40
2022-12-12T16:14:41.602Z,12.70
2022-12-12T16:17:28.299Z,12.68
2022-12-12T16:20:13.984Z,12.82
2022-12-12T16:22:44.836Z,12.13
2022-12-12T16:25:29.484Z,12.90
2022-12-12T16:28:07.240Z,13.75
2022-12-12T16:30:42.809Z,13.70
2022-12-12T16:33:12.300Z,12.93
2022-12-12T16:35:39.804Z,12.90
2022-12-12T16:38:17.274Z,12.90
2022-12-12T16:40:46.494Z,12.98
2022-12-12T16:43:16.743Z,12.20
2022-12-12T16:45:44.118Z,13.07
2022-12-12T16:48:20.005Z,12.38
2022-12-12T16:50:51.200Z,12.65
2022-12-12T16:53:20.082Z,12.82
2022-12-12T16:55:50.232Z,12.55
2022-12-12T16:58:21.337Z,13.02
2022-12-12T17:00:49.934Z,11.07
2022-12-12T17:03:22.181Z,12.13
2022-12-12T17:05:50.451Z,11.90
2022-12-12T17:08:19.411Z,11.20
2022-12-12T17:10:50.933Z,11.35
2022-12-12T17:13:21.456Z,11.70
2022-12-12T17:15:49.109Z,11.75
2022-12-12T17:18:17.620Z,11.30
2022-12-12T17:20:46.112Z,11.27
2022-12-12T17:23:28.646Z,10.68
2022-12-12T17:26:02.952Z,11.68
2022-12-12T17:28:33.762Z,10.73
2022-12-12T17:31:01.852Z,10.05
2022-12-12T17:33:29.697Z,11.05
2022-12-12T17:36:06.712Z,11.20
2022-12-12T17:38:34.766Z,10.68
2022-12-12T17:41:09.084Z,10.32
2022-12-12T17:43:40.894Z,9.85
2022-12-12T17:46:14.875Z,10.30
2022-12-12T17:48:48.341Z,10.80
2022-12-12T17:51:19.745Z,10.20
2022-12-12T17:53:47.745Z,10.10
2022-12-12T17:56:20.452Z,15.95
2022-12-12T17:58:50.680Z,18.98
2022-12-12T18:01:25.955Z,11.82
2022-12-12T18:03:56.022Z,15.38
2022-12-12T18:06:24.859Z,19.77
2022-12-12T18:08:53.532Z,11.73
2022-12-12T18:11:27.549Z,10.45
2022-12-12T18:14:00.539Z,9.82
2022-12-12T18:16:30.697Z,11.02
2022-12-12T18:18:58.687Z,9.70
2022-12-12T18:24:25.748Z,9.82
2022-12-12T18:26:55.747Z,10.88
2022-12-12T18:29:26.306Z,10.13
2022-12-12T18:31:55.594Z,10.23
2022-12-12T18:34:25.774Z,10.25
2022-12-12T18:36:56.620Z,10.98
2022-12-12T18:39:25.486Z,10.93
2022-12-12T18:41:53.418Z,10.48
2022-12-12T18:44:21.627Z,9.52
2022-12-12T18:46:51.657Z,10.32
2022-12-12T18:49:21.807Z,10.52
2022-12-12T18:51:49.750Z,9.88
2022-12-12T18:54:18.846Z,10.32
2022-12-12T18:56:47.467Z,10.02
2022-12-12T18:59:16.448Z,9.38
2022-12-12T19:01:45.250Z,9.68
2022-12-12T19:04:20.899Z,9.65
2022-12-12T19:06:52.628Z,9.73
2022-12-12T19:09:21.981Z,9.25
2022-12-12T19:11:51.714Z,9.85
2022-12-12T19:14:22.651Z,9.60
2022-12-12T19:16:50.334Z,9.43
2022-12-12T19:19:19.808Z,10.10
2022-12-12T19:21:49.319Z,10.32
2022-12-12T19:24:21.905Z,10.55
2022-12-12T19:26:50.998Z,10.27
2022-12-12T19:29:20.964Z,9.82
2022-12-12T19:31:58.316Z,9.20
2022-12-12T19:34:27.041Z,10.27
2022-12-12T19:36:55.560Z,10.30
2022-12-12T19:39:35.271Z,9.95
2022-12-12T19:42:05.047Z,9.52
2022-12-12T19:44:35.591Z,9.77
2022-12-12T19:47:08.260Z,8.80
2022-12-12T19:49:40.350Z,9.27
2022-12-12T19:52:14.300Z,8.07
2022-12-12T19:54:43.240Z,7.70
2022-12-12T19:57:11.417Z,8.10
2022-12-12T19:59:43.386Z,8.90
2022-12-12T20:02:12.504Z,9.23
2022-12-12T20:04:42.089Z,8.93
2022-12-12T20:07:11.146Z,8.38
2022-12-12T20:09:54.866Z,8.73
2022-12-12T20:12:23.479Z,9.13
2022-12-12T20:14:51.714Z,7.65
2022-12-12T20:17:24.898Z,8.93
2022-12-12T20:19:54.245Z,7.78
2022-12-12T20:22:22.517Z,7.95
2022-12-12T20:24:50.711Z,8.00
2022-12-12T20:27:22.892Z,7.13
2022-12-12T20:29:53.279Z,7.78
2022-12-12T20:32:24.840Z,8.77
2022-12-12T20:34:56.066Z,8.90
2022-12-12T20:37:27.025Z,8.90
2022-12-12T20:39:57.233Z,8.20
2022-12-12T20:42:26.383Z,8.15
2022-12-12T20:44:54.952Z,8.25
2022-12-12T20:47:25.729Z,8.07
2022-12-12T20:49:56.157Z,8.30
2022-12-12T20:52:24.679Z,7.38
2022-12-12T20:54:53.292Z,7.80
2022-12-12T20:57:21.860Z,7.43
2022-12-12T20:59:49.848Z,8.00
2022-12-12T21:02:17.839Z,7.05
2022-12-12T21:04:47.837Z,7.57
2022-12-12T21:07:16.161Z,8.15
2022-12-12T21:09:44.180Z,7.43
2022-12-12T21:12:11.806Z,8.02
2022-12-12T21:14:39.171Z,7.38
2022-12-12T21:17:07.431Z,7.40
2022-12-12T21:19:34.755Z,7.82
2022-12-12T21:22:03.337Z,7.45
2022-12-12T21:24:31.315Z,7.80
2022-12-12T21:27:01.843Z,8.07
2022-12-12T21:29:29.205Z,7.88
2022-12-12T21:32:05.166Z,7.30
2022-12-12T21:34:35.185Z,7.43
2022-12-12T21:37:02.757Z,7.57
2022-12-12T21:39:31.038Z,7.38
2022-12-12T21:41:58.524Z,6.70
2022-12-12T21:44:26.696Z,7.05
2022-12-12T21:46:57.213Z,7.20
2022-12-12T21:49:26.891Z,7.22
2022-12-12T21:51:58.490Z,7.05
2022-12-12T21:54:29.088Z,7.50
2022-12-12T21:56:59.592Z,7.20
2022-12-12T21:59:26.828Z,7.45
2022-12-12T22:02:00.092Z,7.60
2022-12-12T22:04:28.743Z,7.82
2022-12-12T22:06:58.631Z,6.97
2022-12-12T22:09:27.328Z,6.95
2022-12-12T22:12:03.703Z,6.70
2022-12-12T22:14:34.152Z,6.20
2022-12-12T22:17:03.147Z,5.88
2022-12-12T22:19:30.576Z,5.68
2022-12-12T22:21:58.838Z,5.45
2022-12-12T22:24:26.400Z,6.88
2022-12-12T22:26:54.074Z,7.10
2022-12-12T22:29:21.325Z,6.07
2022-12-12T22:31:52.640Z,5.97
2022-12-12T22:34:22.421Z,5.82
2022-12-12T22:36:53.740Z,5.82
2022-12-12T22:39:25.968Z,5.95
2022-12-12T22:41:56.005Z,6.93
2022-12-12T22:44:25.559Z,6.63
2022-12-12T22:46:54.875Z,6.65
2022-12-12T22:49:26.279Z,6.35
2022-12-12T22:51:57.767Z,6.20
2022-12-12T22:54:25.883Z,6.60
2022-12-12T22:56:55.674Z,6.15
2022-12-12T22:59:24.355Z,5.97
2022-12-12T23:01:52.469Z,7.03
2022-12-12T23:04:19.696Z,7.47
2022-12-12T23:06:47.136Z,7.57
2022-12-12T23:09:18.146Z,6.90
2022-12-12T23:11:46.101Z,6.70
2022-12-12T23:14:16.243Z,7.32
2022-12-12T23:16:44.496Z,7.43
2022-12-12T23:19:17.452Z,7.68
2022-12-12T23:21:45.786Z,8.50
2022-12-12T23:24:13.430Z,7.55
2022-12-12T23:26:42.929Z,7.32
2022-12-12T23:29:14.174Z,8.43
2022-12-12T23:31:41.591Z,7.93
2022-12-12T23:34:22.812Z,8.35
2022-12-12T23:36:52.515Z,8.55
2022-12-12T23:39:20.382Z,7.75
2022-12-12T23:41:48.153Z,8.32
2022-12-12T23:44:17.816Z,8.90
2022-12-12T23:46:47.987Z,8.65
2022-12-12T23:49:20.672Z,8.45
2022-12-12T23:51:50.383Z,9.02
2022-12-12T23:54:20.242Z,8.07
2022-12-12T23:56:50.983Z,8.82
2022-12-12T23:59:19.834Z,8.25
